Time,TemperatureF,DewpointF,PressureIn,WindDirection,WindDirectionDegrees,WindSpeedMPH,WindSpeedGustMPH,Humidity,HourlyPrecipIn,Conditions,Clouds,dailyrainin,SolarRadiationWatts/m^2,SoftwareType,DateUTC
2013-04-30 00:04:00,47.4,45.2,29.63,SSE,158,9.2,9.2,92,0.00,CLR,SCT,0.00,0.0,WeatherDisplay:10.37,2013-04-30 05:04:00,
2013-04-30 00:09:00,48.6,46.7,29.63,SSE,154,10.0,10.0,93,0.00,CLR,SCT,0.00,0.0,WeatherDisplay:10.37,2013-04-30 05:09:00,
2013-04-30 00:14:00,49.6,47.7,29.63,SSE,152,8.1,8.1,93,0.00,CLR,SCT,0.00,0.0,WeatherDisplay:10.37,2013-04-30 05:14:00,
2013-04-30 00:19:00,49.0,46.4,29.62,SSE,151,7.0,10.0,91,0.00,CLR,SCT,0.00,0.0,WeatherDisplay:10.37,2013-04-30 05:19:00,
2013-04-30 00:24:00,47.7,44.6,29.62,SSE,147,8.0,12.0,89,0.00,CLR,SCT,0.00,0.0,WeatherDisplay:10.37,2013-04-30 05:24:00,
2013-04-30 00:29:00,49.4,47.7,29.63,SSE,148,9.0,12.0,94,0.00,CLR,SCT,0.00,0.0,WeatherDisplay:10.37,2013-04-30 05:29:00,
2013-04-30 00:34:00,49.8,47.9,29.62,SSE,148,11.5,11.5,93,0.00,CLR,SCT,0.00,0.0,WeatherDisplay:10.37,2013-04-30 05:34:00,
2013-04-30 00:40:00,51.0,49.3,29.63,SE,146,10.4,10.4,94,0.00,CLR,SCT,0.00,0.0,WeatherDisplay:10.37,2013-04-30 05:40:00,
2013-04-30 00:45:00,51.3,49.3,29.63,SE,146,8.1,8.1,93,0.00,CLR,SCT,0.00,0.0,WeatherDisplay:10.37,2013-04-30 05:45:00,
2013-04-30 00:50:00,51.4,49.2,29.62,SSE,148,10.0,10.0,92,0.00,CLR,SCT,0.00,0.0,WeatherDisplay:10.37,2013-04-30 05:50:00,
2013-04-30 00:55:00,51.9,49.9,29.62,SSE,152,9.2,9.2,93,0.00,CLR,SCT,0.00,0.0,WeatherDisplay:10.37,2013-04-30 05:55:00,
2013-04-30 01:00:00,52.2,49.9,29.62,SSE,147,10.4,10.4,92,0.00,CLR,SCT,0.00,0.0,WeatherDisplay:10.37,2013-04-30 06:00:00,
2013-04-30 01:05:00,52.5,50.2,29.62,SSE,153,11.5,11.5,92,0.00,CLR,SCT,0.00,0.0,WeatherDisplay:10.37,2013-04-30 06:05:00,
2013-04-30 01:10:00,52.8,50.5,29.61,SSE,152,11.5,11.5,92,0.00,CLR,SCT,0.00,0.0,WeatherDisplay:10.37,2013-04-30 06:10:00,
2013-04-30 01:16:00,52.6,49.8,29.61,SSE,147,11.0,11.0,90,0.00,CLR,SCT,0.00,0.0,WeatherDisplay:10.37,2013-04-30 06:16:00,
2013-04-30 01:21:00,52.5,49.9,29.61,SSE,148,11.5,11.5,91,0.00,CLR,SCT,0.00,0.0,WeatherDisplay:10.37,2013-04-30 06:21:00,
2013-04-30 01:26:00,52.6,50.0,29.60,SSE,149,11.5,11.5,91,0.00,CLR,SCT,0.00,0.0,WeatherDisplay:10.37,2013-04-30 06:26:00,
2013-04-30 01:31:00,52.5,49.9,29.60,SSE,151,12.0,12.0,91,0.00,CLR,SCT,0.00,0.0,WeatherDisplay:10.37,2013-04-30 06:31:00,
2013-04-30 01:36:00,52.8,49.9,29.60,SE,145,11.5,11.5,90,0.00,CLR,SCT,0.00,0.0,WeatherDisplay:10.37,2013-04-30 06:36:00,
2013-04-30 01:41:00,52.8,49.9,29.59,SE,145,11.5,11.5,90,0.00,CLR,SCT,0.00,0.0,WeatherDisplay:10.37,2013-04-30 06:41:00,
2013-04-30 01:46:00,52.9,49.7,29.59,SSE,150,10.4,10.4,89,0.00,CLR,SCT,0.00,0.0,WeatherDisplay:10.37,2013-04-30 06:46:00,
2013-04-30 01:51:00,52.6,49.4,29.59,SSE,153,10.4,10.4,89,0.00,CLR,SCT,0.00,0.0,WeatherDisplay:10.37,2013-04-30 06:51:00,
2013-04-30 01:57:00,52.6,49.8,29.59,SSE,155,10.0,10.0,90,0.00,CLR,SCT,0.00,0.0,WeatherDisplay:10.37,2013-04-30 06:57:00,
2013-04-30 02:02:00,52.5,49.9,29.59,SSE,154,8.1,8.1,91,0.00,CLR,SCT,0.00,0.0,WeatherDisplay:10.37,2013-04-30 07:02:00,
2013-04-30 02:07:00,52.3,49.5,29.59,SSE,152,10.4,10.4,90,0.00,CLR,SCT,0.00,0.0,WeatherDisplay:10.37,2013-04-30 07:07:00,
2013-04-30 02:12:00,52.2,49.7,29.58,SSE,151,10.4,10.4,91,0.00,CLR,SCT,0.00,0.0,WeatherDisplay:10.37,2013-04-30 07:12:00,
2013-04-30 02:17:00,52.3,49.5,29.58,SSE,147,11.0,11.0,90,0.00,CLR,SCT,0.00,0.0,WeatherDisplay:10.37,2013-04-30 07:17:00,
2013-04-30 02:22:00,52.0,49.5,29.58,SSE,148,13.0,13.0,91,0.00,CLR,SCT,0.00,0.0,WeatherDisplay:10.37,2013-04-30 07:22:00,
2013-04-30 02:27:00,52.5,49.7,29.58,SSE,149,11.5,11.5,90,0.00,CLR,SCT,0.00,0.0,WeatherDisplay:10.37,2013-04-30 07:27:00,
2013-04-30 02:33:00,52.6,49.8,29.58,SSE,150,9.2,9.2,90,0.00,CLR,SCT,0.00,0.0,WeatherDisplay:10.37,2013-04-30 07:33:00,
2013-04-30 02:38:00,52.5,49.7,29.58,SSE,151,11.5,11.5,90,0.00,CLR,SCT,0.00,0.0,WeatherDisplay:10.37,2013-04-30 07:38:00,
2013-04-30 02:43:00,52.3,49.2,29.57,SSE,148,10.4,10.4,89,0.00,CLR,SCT,0.00,0.0,WeatherDisplay:10.37,2013-04-30 07:43:00,
2013-04-30 02:48:00,52.2,49.1,29.57,SSE,147,10.4,10.4,89,0.00,CLR,SCT,0.00,0.0,WeatherDisplay:10.37,2013-04-30 07:48:00,
2013-04-30 02:53:00,52.0,48.9,29.57,SSE,149,11.5,11.5,89,0.00,CLR,SCT,0.00,0.0,WeatherDisplay:10.37,2013-04-30 07:53:00,
2013-04-30 02:58:00,52.0,49.2,29.57,SSE,150,12.0,12.0,90,0.00,CLR,SCT,0.00,0.0,WeatherDisplay:10.37,2013-04-30 07:58:00,
2013-04-30 03:03:00,51.9,49.1,29.57,SSE,152,11.5,11.5,90,0.00,CLR,SCT,0.00,0.0,WeatherDisplay:10.37,2013-04-30 08:03:00,
2013-04-30 03:08:00,51.9,49.4,29.57,SSE,160,11.0,11.0,91,0.00,CLR,SCT,0.00,0.0,WeatherDisplay:10.37,2013-04-30 08:08:00,
2013-04-30 03:14:00,51.9,49.1,29.57,SSE,154,11.5,11.5,90,0.00,CLR,SCT,0.00,0.0,WeatherDisplay:10.37,2013-04-30 08:14:00,
2013-04-30 03:19:00,51.7,48.9,29.57,SSE,157,9.2,9.2,90,0.00,CLR,SCT,0.00,0.0,WeatherDisplay:10.37,2013-04-30 08:19:00,
2013-04-30 03:24:00,51.7,49.2,29.57,SE,144,11.5,11.5,91,0.00,CLR,SCT,0.00,0.0,WeatherDisplay:10.37,2013-04-30 08:24:00,
2013-04-30 03:29:00,51.7,49.2,29.57,SSE,150,14.0,14.0,91,0.00,CLR,SCT,0.00,0.0,WeatherDisplay:10.37,2013-04-30 08:29:00,
2013-04-30 03:34:00,51.7,49.2,29.56,SSE,147,11.0,11.0,91,0.00,CLR,SCT,0.00,0.0,WeatherDisplay:10.37,2013-04-30 08:34:00,
2013-04-30 03:39:00,51.9,49.4,29.56,SE,145,9.2,9.2,91,0.00,CLR,SCT,0.00,0.0,WeatherDisplay:10.37,2013-04-30 08:39:00,
2013-04-30 03:44:00,51.6,49.4,29.56,SE,142,9.2,9.2,92,0.00,CLR,SCT,0.00,0.0,WeatherDisplay:10.37,2013-04-30 08:44:00,
2013-04-30 03:49:00,51.3,49.1,29.56,SE,143,7.0,12.0,92,0.00,CLR,SCT,0.00,0.0,WeatherDisplay:10.37,2013-04-30 08:49:00,
2013-04-30 03:54:00,51.5,49.2,29.56,SE,144,7.0,12.0,92,0.00,CLR,SCT,0.00,0.0,WeatherDisplay:10.37,2013-04-30 08:54:00,
2013-04-30 03:59:00,51.1,48.9,29.56,SE,146,7.0,12.0,92,0.00,CLR,SCT,0.00,0.0,WeatherDisplay:10.37,2013-04-30 08:59:00,
2013-04-30 04:04:00,50.8,48.6,29.56,SE,146,8.0,10.0,92,0.00,CLR,SCT,0.00,0.0,WeatherDisplay:10.37,2013-04-30 09:04:00,
2013-04-30 04:09:00,50.8,48.8,29.55,SE,140,6.0,13.0,93,0.00,CLR,SCT,0.00,0.0,WeatherDisplay:10.37,2013-04-30 09:09:00,
2013-04-30 04:14:00,50.8,48.8,29.55,SE,139,7.0,12.0,93,0.00,CLR,SCT,0.00,0.0,WeatherDisplay:10.37,2013-04-30 09:14:00,
2013-04-30 04:19:00,50.8,48.8,29.55,SE,142,9.2,9.2,93,0.00,CLR,SCT,0.00,0.0,WeatherDisplay:10.37,2013-04-30 09:19:00,
2013-04-30 04:24:00,51.0,49.0,29.55,SE,143,8.0,12.0,93,0.00,CLR,SCT,0.00,0.0,WeatherDisplay:10.37,2013-04-30 09:24:00,
2013-04-30 04:29:00,51.1,49.1,29.54,SE,144,10.0,10.0,93,0.00,CLR,SCT,0.00,0.0,WeatherDisplay:10.37,2013-04-30 09:29:00,
2013-04-30 04:34:00,51.1,49.1,29.54,SE,143,8.0,13.0,93,0.00,CLR,SCT,0.00,0.0,WeatherDisplay:10.37,2013-04-30 09:34:00,
2013-04-30 04:39:00,51.1,48.9,29.54,SSE,147,8.0,15.0,92,0.00,CLR,SCT,0.00,0.0,WeatherDisplay:10.37,2013-04-30 09:39:00,
2013-04-30 04:44:00,51.3,49.3,29.54,SSE,147,9.0,13.0,93,0.00,CLR,SCT,0.00,0.0,WeatherDisplay:10.37,2013-04-30 09:44:00,
2013-04-30 04:49:00,51.4,49.5,29.53,SE,141,9.0,14.0,93,0.00,CLR,SCT,0.00,0.0,WeatherDisplay:10.37,2013-04-30 09:49:00,
2013-04-30 04:54:00,51.4,49.2,29.53,SSE,157,15.0,15.0,92,0.00,CLR,SCT,0.00,0.0,WeatherDisplay:10.37,2013-04-30 09:54:00,
2013-04-30 04:59:00,51.6,49.6,29.53,SSE,149,8.0,14.0,93,0.00,CLR,SCT,0.00,0.0,WeatherDisplay:10.37,2013-04-30 09:59:00,
2013-04-30 05:04:00,51.9,49.9,29.53,SSE,147,8.0,14.0,93,0.00,CLR,SCT,0.00,0.0,WeatherDisplay:10.37,2013-04-30 10:04:00,
2013-04-30 05:09:00,52.0,50.0,29.53,SE,143,8.0,12.0,93,0.00,CLR,SCT,0.00,0.0,WeatherDisplay:10.37,2013-04-30 10:09:00,
2013-04-30 05:14:00,52.1,50.1,29.52,SE,140,8.0,13.0,93,0.00,CLR,SCT,0.00,0.0,WeatherDisplay:10.37,2013-04-30 10:14:00,
2013-04-30 05:19:00,52.3,50.3,29.53,SE,141,8.0,12.0,93,0.00,CLR,SCT,0.00,0.0,WeatherDisplay:10.37,2013-04-30 10:19:00,
2013-04-30 05:24:00,52.3,50.0,29.53,SE,143,10.0,16.0,92,0.00,CLR,SCT,0.00,0.0,WeatherDisplay:10.37,2013-04-30 10:24:00,
2013-04-30 05:29:00,52.3,50.0,29.53,SSE,150,15.0,15.0,92,0.00,CLR,SCT,0.00,0.0,WeatherDisplay:10.37,2013-04-30 10:29:00,
2013-04-30 05:34:00,52.3,50.0,29.53,SE,145,10.0,20.0,92,0.00,CLR,SCT,0.00,0.0,WeatherDisplay:10.37,2013-04-30 10:34:00,
2013-04-30 05:39:00,52.5,50.2,29.53,SE,145,8.0,15.0,92,0.00,CLR,SCT,0.00,0.0,WeatherDisplay:10.37,2013-04-30 10:39:00,
2013-04-30 05:44:00,52.5,50.5,29.53,SSE,152,10.0,16.0,93,0.00,CLR,SCT,0.00,0.0,WeatherDisplay:10.37,2013-04-30 10:44:00,
2013-04-30 05:49:00,52.5,50.5,29.53,SSE,149,10.0,17.0,93,0.00,CLR,SCT,0.00,0.0,WeatherDisplay:10.37,2013-04-30 10:49:00,
2013-04-30 05:54:00,52.5,50.5,29.53,SSE,150,9.0,16.0,93,0.00,CLR,SCT,0.00,0.0,WeatherDisplay:10.37,2013-04-30 10:54:00,
2013-04-30 05:59:00,52.8,51.1,29.53,SSE,152,8.0,13.0,94,0.00,CLR,SCT,0.00,0.0,WeatherDisplay:10.37,2013-04-30 10:59:00,
2013-04-30 06:04:00,52.9,50.9,29.52,SE,140,11.5,11.5,93,0.00,CLR,SCT,0.00,0.0,WeatherDisplay:10.37,2013-04-30 11:04:00,
2013-04-30 06:09:00,53.1,51.4,29.51,SE,145,9.0,14.0,94,0.00,CLR,SCT,0.00,0.0,WeatherDisplay:10.37,2013-04-30 11:09:00,
2013-04-30 06:14:00,53.2,51.2,29.51,SE,145,9.0,13.0,93,0.00,CLR,SCT,0.00,0.0,WeatherDisplay:10.37,2013-04-30 11:14:00,
2013-04-30 06:19:00,53.3,51.6,29.51,SSE,149,9.0,15.0,94,0.00,CLR,SCT,0.00,0.0,WeatherDisplay:10.37,2013-04-30 11:19:00,
2013-04-30 06:24:00,53.5,51.5,29.51,SSE,163,17.3,17.3,93,0.00,CLR,SCT,0.00,0.0,WeatherDisplay:10.37,2013-04-30 11:24:00,
2013-04-30 06:30:00,53.6,51.9,29.50,SSE,163,12.7,12.7,94,0.00,CLR,SCT,0.00,0.0,WeatherDisplay:10.37,2013-04-30 11:30:00,
2013-04-30 06:35:00,53.9,52.2,29.50,SSE,158,13.8,13.8,94,0.00,CLR,SCT,0.00,0.0,WeatherDisplay:10.37,2013-04-30 11:35:00,
2013-04-30 06:40:00,54.2,52.5,29.50,SSE,154,14.0,14.0,94,0.00,CLR,SCT,0.00,0.0,WeatherDisplay:10.37,2013-04-30 11:40:00,
2013-04-30 06:45:00,54.2,52.5,29.50,SE,125,14.0,14.0,94,0.00,CLR,SCT,0.00,0.0,WeatherDisplay:10.37,2013-04-30 11:45:00,
2013-04-30 06:50:00,54.4,52.7,29.49,SSE,152,18.0,18.0,94,0.00,CLR,SCT,0.00,0.0,WeatherDisplay:10.37,2013-04-30 11:50:00,
2013-04-30 06:55:00,54.7,53.0,29.49,SSE,157,18.4,18.4,94,0.00,CLR,SCT,0.00,0.0,WeatherDisplay:10.37,2013-04-30 11:55:00,
2013-04-30 07:00:00,54.8,52.8,29.49,SSE,151,15.0,15.0,93,0.00,OVC,SCT,0.00,0.0,WeatherDisplay:10.37,2013-04-30 12:00:00,
2013-04-30 07:06:00,55.0,53.0,29.49,South,170,22.0,22.0,93,0.00,OVC,SCT,0.00,0.0,WeatherDisplay:10.37,2013-04-30 12:06:00,
2013-04-30 07:11:00,55.0,53.0,29.48,SSE,163,18.4,18.4,93,0.00,OVC,SCT,0.00,0.0,WeatherDisplay:10.37,2013-04-30 12:11:00,
2013-04-30 07:16:00,55.0,53.0,29.48,SSE,150,18.4,18.4,93,0.00,OVC,SCT,0.00,0.0,WeatherDisplay:10.37,2013-04-30 12:16:00,
2013-04-30 07:21:00,55.0,53.0,29.48,SSE,156,10.4,10.4,93,0.00,OVC,SCT,0.00,0.0,WeatherDisplay:10.37,2013-04-30 12:21:00,
2013-04-30 07:26:00,55.1,53.1,29.49,South,179,15.0,15.0,93,0.00,OVC,SCT,0.00,0.0,WeatherDisplay:10.37,2013-04-30 12:26:00,
2013-04-30 07:31:00,56.0,54.0,29.49,South,178,16.0,16.0,93,0.00,OVC,SCT,0.00,0.0,WeatherDisplay:10.37,2013-04-30 12:31:00,
2013-04-30 07:36:00,56.6,53.7,29.50,SSE,167,18.4,18.4,90,0.00,OVC,SCT,0.00,0.0,WeatherDisplay:10.37,2013-04-30 12:36:00,
2013-04-30 07:41:00,56.9,54.0,29.49,SSE,164,10.0,10.0,90,0.00,OVC,SCT,0.00,0.0,WeatherDisplay:10.37,2013-04-30 12:41:00,
2013-04-30 07:47:00,57.0,54.1,29.48,SSE,147,20.7,20.7,90,0.00,OVC,SCT,0.00,0.0,WeatherDisplay:10.37,2013-04-30 12:47:00,
2013-04-30 07:52:00,57.0,53.5,29.47,SSE,154,17.3,17.3,88,0.00,OVC,SCT,0.00,0.0,WeatherDisplay:10.37,2013-04-30 12:52:00,
2013-04-30 07:57:00,57.2,54.0,29.47,SE,140,12.0,12.0,89,0.00,OVC,SCT,0.00,0.0,WeatherDisplay:10.37,2013-04-30 12:57:00,
2013-04-30 08:02:00,57.5,54.3,29.47,SSE,163,18.4,18.4,89,0.00,OVC,SCT,0.00,0.0,WeatherDisplay:10.37,2013-04-30 13:02:00,
2013-04-30 08:07:00,58.0,54.5,29.47,SSW,193,16.0,16.0,88,0.00,OVC,SCT,0.00,0.0,WeatherDisplay:10.37,2013-04-30 13:07:00,
2013-04-30 08:12:00,58.9,54.7,29.47,South,187,14.0,14.0,86,0.00,OVC,SCT,0.00,0.0,WeatherDisplay:10.37,2013-04-30 13:12:00,
2013-04-30 08:17:00,59.2,54.7,29.47,SSW,198,19.6,19.6,85,0.00,OVC,SCT,0.00,0.0,WeatherDisplay:10.37,2013-04-30 13:17:00,
2013-04-30 08:23:00,59.2,54.7,29.46,South,172,15.0,15.0,85,0.00,OVC,SCT,0.00,0.0,WeatherDisplay:10.37,2013-04-30 13:23:00,
2013-04-30 08:28:00,59.5,55.0,29.46,SSE,167,20.0,20.0,85,0.00,OVC,SCT,0.00,0.0,WeatherDisplay:10.37,2013-04-30 13:28:00,
2013-04-30 08:33:00,60.9,55.4,29.45,SSE,150,12.7,12.7,82,0.00,OVC,SCT,0.00,0.0,WeatherDisplay:10.37,2013-04-30 13:33:00,
2013-04-30 08:38:00,62.1,55.5,29.44,South,176,17.3,17.3,79,0.00,OVC,SCT,0.00,0.0,WeatherDisplay:10.37,2013-04-30 13:38:00,
2013-04-30 08:43:00,62.1,55.5,29.43,SSE,162,18.4,18.4,79,0.00,OVC,SCT,0.00,0.0,WeatherDisplay:10.37,2013-04-30 13:43:00,
2013-04-30 08:48:00,62.1,55.9,29.43,SE,138,15.0,15.0,80,0.00,OVC,SCT,0.00,0.0,WeatherDisplay:10.37,2013-04-30 13:48:00,
2013-04-30 08:53:00,62.9,55.9,29.44,South,173,19.6,19.6,78,0.00,OVC,SCT,0.00,0.0,WeatherDisplay:10.37,2013-04-30 13:53:00,
2013-04-30 08:58:00,63.9,56.2,29.44,SSW,196,19.6,19.6,76,0.00,OVC,SCT,0.00,0.0,WeatherDisplay:10.37,2013-04-30 13:58:00,
2013-04-30 09:04:00,64.8,56.3,29.45,SSW,210,20.7,20.7,74,0.00,OVC,SCT,0.00,0.0,WeatherDisplay:10.37,2013-04-30 14:04:00,
2013-04-30 09:09:00,65.3,56.4,29.44,SW,217,17.3,17.3,73,0.00,OVC,SCT,0.00,0.0,WeatherDisplay:10.37,2013-04-30 14:09:00,
2013-04-30 09:14:00,65.5,56.2,29.44,South,185,12.7,12.7,72,0.00,OVC,SCT,0.00,0.0,WeatherDisplay:10.37,2013-04-30 14:14:00,
2013-04-30 09:19:00,66.0,56.3,29.44,WSW,239,19.6,19.6,71,0.00,OVC,SCT,0.00,0.0,WeatherDisplay:10.37,2013-04-30 14:19:00,
2013-04-30 09:24:00,66.3,56.2,29.43,SSE,165,33.4,33.4,70,0.00,OVC,SCT,0.00,0.0,WeatherDisplay:10.37,2013-04-30 14:24:00,
2013-04-30 09:29:00,66.9,56.0,29.43,SSW,198,33.0,33.0,68,0.01,RA,SCT,0.01,0.0,WeatherDisplay:10.37,2013-04-30 14:29:00,
2013-04-30 09:34:00,67.1,56.2,29.43,SW,227,17.3,17.3,68,0.01,RA,SCT,0.01,0.0,WeatherDisplay:10.37,2013-04-30 14:34:00,
2013-04-30 09:39:00,67.4,56.5,29.43,SSW,195,17.0,35.0,68,0.00,OVC,SCT,0.01,0.0,WeatherDisplay:10.37,2013-04-30 14:39:00,
2013-04-30 09:44:00,66.9,56.0,29.43,SSW,194,16.1,16.1,68,0.01,OVC,SCT,0.01,0.0,WeatherDisplay:10.37,2013-04-30 14:44:00,
2013-04-30 09:49:00,67.7,56.4,29.43,SSW,194,20.0,35.0,67,0.00,OVC,SCT,0.01,0.0,WeatherDisplay:10.37,2013-04-30 14:49:00,
2013-04-30 09:54:00,68.1,56.7,29.43,South,190,16.0,29.0,67,0.00,OVC,SCT,0.01,0.0,WeatherDisplay:10.37,2013-04-30 14:54:00,
2013-04-30 10:00:00,68.1,55.9,29.43,SSW,200,18.4,18.4,65,0.01,OVC,SCT,0.01,0.0,WeatherDisplay:10.37,2013-04-30 15:00:00,
2013-04-30 10:05:00,68.4,56.6,29.43,SSW,192,24.2,24.2,66,0.01,OVC,SCT,0.01,0.0,WeatherDisplay:10.37,2013-04-30 15:05:00,
2013-04-30 10:10:00,68.8,56.1,29.43,SSW,208,17.3,17.3,64,0.01,OVC,SCT,0.01,0.0,WeatherDisplay:10.37,2013-04-30 15:10:00,
2013-04-30 10:15:00,68.3,56.5,29.44,SSW,195,25.0,25.0,66,0.01,OVC,SCT,0.01,0.0,WeatherDisplay:10.37,2013-04-30 15:15:00,
2013-04-30 10:20:00,69.4,56.7,29.44,SSW,207,23.0,23.0,64,0.01,OVC,SCT,0.01,0.0,WeatherDisplay:10.37,2013-04-30 15:20:00,
2013-04-30 10:25:00,68.8,56.6,29.44,SW,236,32.2,32.2,65,0.01,OVC,SCT,0.01,0.0,WeatherDisplay:10.37,2013-04-30 15:25:00,
2013-04-30 10:30:00,68.6,55.9,29.44,SW,216,18.4,18.4,64,0.00,OVC,SCT,0.01,0.0,WeatherDisplay:10.37,2013-04-30 15:30:00,
2013-04-30 10:36:00,67.9,55.7,29.44,SW,225,26.5,26.5,65,0.00,OVC,SCT,0.01,0.0,WeatherDisplay:10.37,2013-04-30 15:36:00,
2013-04-30 10:41:00,68.6,56.4,29.44,SW,217,17.3,17.3,65,0.00,OVC,SCT,0.01,0.0,WeatherDisplay:10.37,2013-04-30 15:41:00,
2013-04-30 10:46:00,68.1,55.5,29.45,WSW,238,20.7,20.7,64,0.00,OVC,SCT,0.01,0.0,WeatherDisplay:10.37,2013-04-30 15:46:00,
2013-04-30 10:51:00,66.8,55.9,29.45,SSE,166,21.9,21.9,68,0.00,OVC,SCT,0.01,0.0,WeatherDisplay:10.37,2013-04-30 15:51:00,
2013-04-30 10:56:00,69.8,56.6,29.45,South,185,29.0,29.0,63,0.00,OVC,SCT,0.01,0.0,WeatherDisplay:10.37,2013-04-30 15:56:00,
2013-04-30 11:01:00,71.6,56.5,29.45,SSW,206,36.8,36.8,59,0.00,OVC,SCT,0.01,0.0,WeatherDisplay:10.37,2013-04-30 16:01:00,
2013-04-30 11:06:00,69.1,54.6,29.46,SW,221,26.5,26.5,60,0.00,OVC,SCT,0.01,0.0,WeatherDisplay:10.37,2013-04-30 16:06:00,
2013-04-30 11:11:00,69.9,55.4,29.46,SW,230,24.2,24.2,60,0.00,OVC,SCT,0.01,0.0,WeatherDisplay:10.37,2013-04-30 16:11:00,
2013-04-30 11:17:00,69.9,55.8,29.45,SW,214,34.5,34.5,61,0.00,OVC,SCT,0.01,0.0,WeatherDisplay:10.37,2013-04-30 16:17:00,
2013-04-30 11:22:00,70.6,55.6,29.46,SSW,212,17.3,17.3,59,0.00,OVC,SCT,0.01,0.0,WeatherDisplay:10.37,2013-04-30 16:22:00,
2013-04-30 11:27:00,70.9,55.9,29.46,SSW,203,31.0,31.0,59,0.00,OVC,SCT,0.01,0.0,WeatherDisplay:10.37,2013-04-30 16:27:00,
2013-04-30 11:32:00,70.3,54.8,29.46,WSW,246,19.6,19.6,58,0.00,OVC,SCT,0.01,0.0,WeatherDisplay:10.37,2013-04-30 16:32:00,
2013-04-30 11:37:00,70.1,55.1,29.46,SW,215,25.3,25.3,59,0.00,OVC,SCT,0.01,0.0,WeatherDisplay:10.37,2013-04-30 16:37:00,
2013-04-30 11:42:00,69.8,54.8,29.46,SW,233,26.5,26.5,59,0.00,OVC,SCT,0.01,0.0,WeatherDisplay:10.37,2013-04-30 16:42:00,
2013-04-30 11:47:00,69.1,53.7,29.47,SSW,196,18.4,19.1,58,0.00,OVC,SCT,0.01,0.0,WeatherDisplay:10.37,2013-04-30 16:47:00,
2013-04-30 11:53:00,69.6,53.2,29.46,SSW,206,28.8,28.8,56,0.00,OVC,SCT,0.01,0.0,WeatherDisplay:10.37,2013-04-30 16:53:00,
2013-04-30 11:58:00,71.1,55.6,29.47,SW,227,19.0,19.0,58,0.00,OVC,SCT,0.01,0.0,WeatherDisplay:10.37,2013-04-30 16:58:00,
2013-04-30 12:03:00,69.6,54.6,29.47,WSW,239,25.0,25.0,59,0.00,OVC,SCT,0.01,0.0,WeatherDisplay:10.37,2013-04-30 17:03:00,
2013-04-30 12:08:00,67.3,54.3,29.47,South,185,19.6,19.6,63,0.00,OVC,SCT,0.01,0.0,WeatherDisplay:10.37,2013-04-30 17:08:00,
2013-04-30 12:13:00,68.9,52.1,29.47,WSW,237,17.3,17.3,55,0.00,OVC,SCT,0.01,0.0,WeatherDisplay:10.37,2013-04-30 17:13:00,
2013-04-30 12:18:00,69.9,51.5,29.47,SSW,209,26.5,26.5,52,0.00,OVC,SCT,0.01,0.0,WeatherDisplay:10.37,2013-04-30 17:18:00,
2013-04-30 12:23:00,70.3,52.4,29.47,SW,229,27.6,27.6,53,0.00,OVC,SCT,0.01,0.0,WeatherDisplay:10.37,2013-04-30 17:23:00,
2013-04-30 12:28:00,72.5,52.8,29.47,WSW,244,23.0,23.0,50,0.00,OVC,SCT,0.01,0.0,WeatherDisplay:10.37,2013-04-30 17:28:00,
2013-04-30 12:34:00,73.2,52.9,29.47,WSW,257,27.6,27.6,49,0.00,OVC,SCT,0.01,0.0,WeatherDisplay:10.37,2013-04-30 17:34:00,
2013-04-30 12:39:00,69.8,50.9,29.48,SSW,202,26.5,26.5,51,0.00,OVC,SCT,0.01,0.0,WeatherDisplay:10.37,2013-04-30 17:39:00,
2013-04-30 12:44:00,69.4,51.5,29.48,South,191,20.7,20.7,53,0.00,OVC,SCT,0.01,0.0,WeatherDisplay:10.37,2013-04-30 17:44:00,
2013-04-30 12:49:00,70.1,52.7,29.49,SW,235,28.8,28.8,54,0.00,OVC,SCT,0.01,0.0,WeatherDisplay:10.37,2013-04-30 17:49:00,
2013-04-30 12:54:00,72.5,52.8,29.49,SW,233,17.3,17.3,50,0.00,OVC,SCT,0.01,0.0,WeatherDisplay:10.37,2013-04-30 17:54:00,
2013-04-30 12:59:00,71.3,50.6,29.49,SW,227,25.3,25.3,48,0.00,OVC,SCT,0.01,0.0,WeatherDisplay:10.37,2013-04-30 17:59:00,
2013-04-30 13:04:00,69.6,52.2,29.50,SW,217,19.0,19.0,54,0.00,OVC,SCT,0.01,0.0,WeatherDisplay:10.37,2013-04-30 18:04:00,
2013-04-30 13:09:00,70.9,51.9,29.50,SW,235,17.0,26.0,51,0.00,OVC,SCT,0.01,0.0,WeatherDisplay:10.37,2013-04-30 18:09:00,
2013-04-30 13:14:00,69.4,51.0,29.50,WSW,245,17.0,23.0,52,0.00,OVC,SCT,0.01,0.0,WeatherDisplay:10.37,2013-04-30 18:14:00,
2013-04-30 13:19:00,69.5,50.6,29.50,WSW,246,21.0,30.0,51,0.00,OVC,SCT,0.01,0.0,WeatherDisplay:10.37,2013-04-30 18:19:00,
2013-04-30 13:24:00,68.3,49.5,29.51,WSW,237,22.0,30.0,51,0.00,OVC,SCT,0.01,0.0,WeatherDisplay:10.37,2013-04-30 18:24:00,
2013-04-30 13:29:00,68.9,47.8,29.51,WSW,237,21.0,28.0,47,0.00,OVC,SCT,0.01,0.0,WeatherDisplay:10.37,2013-04-30 18:29:00,
2013-04-30 13:34:00,68.5,45.7,29.51,WSW,249,15.0,33.0,44,0.00,OVC,SCT,0.01,0.0,WeatherDisplay:10.37,2013-04-30 18:34:00,
2013-04-30 13:39:00,69.4,45.9,29.51,WSW,244,21.9,21.9,43,0.00,OVC,SCT,0.01,0.0,WeatherDisplay:10.37,2013-04-30 18:39:00,
2013-04-30 13:44:00,68.9,46.1,29.52,WSW,250,20.0,24.0,44,0.00,OVC,SCT,0.01,0.0,WeatherDisplay:10.37,2013-04-30 18:44:00,
2013-04-30 13:50:00,69.9,48.7,29.52,WSW,254,20.7,20.7,47,0.00,OVC,SCT,0.01,0.0,WeatherDisplay:10.37,2013-04-30 18:50:00,
2013-04-30 13:55:00,69.8,46.9,29.53,West,276,29.9,29.9,44,0.00,OVC,SCT,0.01,0.0,WeatherDisplay:10.37,2013-04-30 18:55:00,
2013-04-30 14:00:00,68.1,45.9,29.54,West,266,26.5,26.5,45,0.00,OVC,SCT,0.01,0.0,WeatherDisplay:10.37,2013-04-30 19:00:00,
2013-04-30 14:05:00,67.1,44.4,29.54,WSW,253,27.6,27.6,44,0.00,OVC,SCT,0.01,0.0,WeatherDisplay:10.37,2013-04-30 19:05:00,
2013-04-30 14:10:00,67.9,42.7,29.55,WSW,242,27.6,27.6,40,0.00,OVC,SCT,0.01,0.0,WeatherDisplay:10.37,2013-04-30 19:10:00,
2013-04-30 14:15:00,68.3,42.4,29.55,WSW,252,30.0,30.0,39,0.00,OVC,SCT,0.01,0.0,WeatherDisplay:10.37,2013-04-30 19:15:00,
2013-04-30 14:20:00,67.3,42.1,29.55,WSW,243,26.5,26.5,40,0.00,OVC,SCT,0.01,0.0,WeatherDisplay:10.37,2013-04-30 19:20:00,
2013-04-30 14:26:00,67.1,43.8,29.56,WSW,239,23.0,23.0,43,0.00,OVC,SCT,0.01,0.0,WeatherDisplay:10.37,2013-04-30 19:26:00,
2013-04-30 14:31:00,66.4,42.6,29.57,WSW,252,20.0,20.0,42,0.00,OVC,SCT,0.01,0.0,WeatherDisplay:10.37,2013-04-30 19:31:00,
2013-04-30 14:36:00,65.6,43.7,29.57,WSW,237,23.0,23.0,45,0.00,OVC,SCT,0.01,0.0,WeatherDisplay:10.37,2013-04-30 19:36:00,
2013-04-30 14:41:00,65.5,44.7,29.58,SW,224,16.1,16.1,47,0.00,OVC,SCT,0.01,0.0,WeatherDisplay:10.37,2013-04-30 19:41:00,
2013-04-30 14:46:00,64.8,45.7,29.58,SW,229,25.3,25.3,50,0.00,OVC,SCT,0.01,0.0,WeatherDisplay:10.37,2013-04-30 19:46:00,
2013-04-30 14:51:00,65.0,44.3,29.58,West,261,22.0,22.0,47,0.00,OVC,SCT,0.01,0.0,WeatherDisplay:10.37,2013-04-30 19:51:00,
2013-04-30 14:56:00,64.5,44.9,29.58,WSW,257,23.0,23.0,49,0.00,OVC,SCT,0.01,0.0,WeatherDisplay:10.37,2013-04-30 19:56:00,
2013-04-30 15:02:00,64.8,45.7,29.58,SW,224,25.3,25.3,50,0.00,OVC,SCT,0.01,0.0,WeatherDisplay:10.37,2013-04-30 20:02:00,
2013-04-30 15:07:00,65.0,46.4,29.58,WSW,256,15.0,15.0,51,0.00,OVC,SCT,0.01,0.0,WeatherDisplay:10.37,2013-04-30 20:07:00,
2013-04-30 15:12:00,66.0,47.3,29.58,SSW,202,13.8,13.8,51,0.00,OVC,SCT,0.01,0.0,WeatherDisplay:10.37,2013-04-30 20:12:00,
2013-04-30 15:17:00,66.3,46.6,29.58,WSW,247,13.0,13.0,49,0.00,OVC,SCT,0.01,0.0,WeatherDisplay:10.37,2013-04-30 20:17:00,
2013-04-30 15:22:00,66.3,47.1,29.59,WSW,243,18.0,18.0,50,0.00,OVC,SCT,0.01,0.0,WeatherDisplay:10.37,2013-04-30 20:22:00,
2013-04-30 15:27:00,64.2,46.2,29.60,WSW,256,18.4,18.4,52,0.00,OVC,SCT,0.01,0.0,WeatherDisplay:10.37,2013-04-30 20:27:00,
2013-04-30 15:32:00,64.0,46.0,29.59,West,275,20.7,20.7,52,0.00,OVC,SCT,0.01,0.0,WeatherDisplay:10.37,2013-04-30 20:32:00,
2013-04-30 15:37:00,62.6,45.2,29.61,SW,226,19.6,19.6,53,0.00,OVC,SCT,0.01,0.0,WeatherDisplay:10.37,2013-04-30 20:37:00,
2013-04-30 15:43:00,62.9,46.5,29.62,WSW,241,26.5,26.5,55,0.00,OVC,SCT,0.01,0.0,WeatherDisplay:10.37,2013-04-30 20:43:00,
2013-04-30 15:48:00,63.2,44.8,29.62,WSW,257,17.0,17.0,51,0.00,OVC,SCT,0.01,0.0,WeatherDisplay:10.37,2013-04-30 20:48:00,
2013-04-30 15:53:00,62.7,44.3,29.62,WSW,255,17.3,17.3,51,0.00,OVC,SCT,0.01,0.0,WeatherDisplay:10.37,2013-04-30 20:53:00,
2013-04-30 15:58:00,63.1,43.6,29.62,WSW,257,24.0,24.0,49,0.00,OVC,SCT,0.01,0.0,WeatherDisplay:10.37,2013-04-30 20:58:00,
2013-04-30 16:03:00,61.3,43.5,29.63,West,261,18.4,18.4,52,0.00,OVC,SCT,0.01,0.0,WeatherDisplay:10.37,2013-04-30 21:03:00,
2013-04-30 16:08:00,61.0,43.7,29.64,West,277,23.0,23.0,53,0.00,OVC,SCT,0.01,0.0,WeatherDisplay:10.37,2013-04-30 21:08:00,
2013-04-30 16:13:00,61.3,42.5,29.63,WSW,237,19.6,19.6,50,0.00,OVC,SCT,0.01,0.0,WeatherDisplay:10.37,2013-04-30 21:13:00,
2013-04-30 16:19:00,60.9,41.6,29.63,WSW,257,18.4,18.4,49,0.00,OVC,SCT,0.01,0.0,WeatherDisplay:10.37,2013-04-30 21:19:00,
2013-04-30 16:24:00,61.6,41.2,29.64,West,261,15.0,15.0,47,0.00,OVC,SCT,0.01,0.0,WeatherDisplay:10.37,2013-04-30 21:24:00,
2013-04-30 16:29:00,61.6,41.2,29.65,West,261,20.7,20.7,47,0.00,OVC,SCT,0.01,0.0,WeatherDisplay:10.37,2013-04-30 21:29:00,
2013-04-30 16:34:00,61.6,41.7,29.64,WSW,250,13.8,13.8,48,0.00,OVC,SCT,0.01,0.0,WeatherDisplay:10.37,2013-04-30 21:34:00,
2013-04-30 16:39:00,60.5,40.7,29.64,WSW,253,11.5,11.5,48,0.00,OVC,SCT,0.01,0.0,WeatherDisplay:10.37,2013-04-30 21:39:00,
2013-04-30 16:44:00,59.9,42.7,29.66,West,277,18.0,18.0,53,0.00,OVC,SCT,0.01,0.0,WeatherDisplay:10.37,2013-04-30 21:44:00,
2013-04-30 16:49:00,60.5,41.8,29.66,West,261,14.0,14.0,50,0.00,OVC,SCT,0.01,0.0,WeatherDisplay:10.37,2013-04-30 21:49:00,
2013-04-30 16:54:00,59.4,42.2,29.66,WSW,257,10.0,17.0,53,0.00,OVC,SCT,0.01,0.0,WeatherDisplay:10.37,2013-04-30 21:54:00,
2013-04-30 16:59:00,58.9,42.8,29.66,WSW,255,14.0,20.0,55,0.00,OVC,SCT,0.01,0.0,WeatherDisplay:10.37,2013-04-30 21:59:00,
2013-04-30 17:04:00,58.8,42.2,29.66,WSW,253,12.0,18.0,54,0.00,OVC,SCT,0.01,0.0,WeatherDisplay:10.37,2013-04-30 22:04:00,
2013-04-30 17:09:00,58.7,42.6,29.66,West,271,16.0,16.0,55,0.00,OVC,SCT,0.01,0.0,WeatherDisplay:10.37,2013-04-30 22:09:00,
2013-04-30 17:14:00,59.3,43.1,29.67,WSW,251,12.0,17.0,55,0.00,OVC,SCT,0.01,0.0,WeatherDisplay:10.37,2013-04-30 22:14:00,
2013-04-30 17:19:00,59.6,42.9,29.67,WSW,250,18.0,18.0,54,0.00,OVC,SCT,0.01,0.0,WeatherDisplay:10.37,2013-04-30 22:19:00,
2013-04-30 17:24:00,60.1,43.9,29.67,SW,236,9.0,14.0,55,0.00,OVC,SCT,0.01,0.0,WeatherDisplay:10.37,2013-04-30 22:24:00,
2013-04-30 17:29:00,60.8,44.0,29.67,SW,233,13.0,17.0,54,0.00,OVC,SCT,0.01,0.0,WeatherDisplay:10.37,2013-04-30 22:29:00,
2013-04-30 17:34:00,59.9,42.2,29.68,WSW,244,10.0,17.0,52,0.00,OVC,SCT,0.01,0.0,WeatherDisplay:10.37,2013-04-30 22:34:00,
2013-04-30 17:39:00,59.5,42.3,29.69,WSW,242,11.5,11.5,53,0.00,OVC,SCT,0.01,0.0,WeatherDisplay:10.37,2013-04-30 22:39:00,
2013-04-30 17:45:00,59.0,41.4,29.70,SW,233,18.0,18.0,52,0.00,OVC,SCT,0.01,0.0,WeatherDisplay:10.37,2013-04-30 22:45:00,
2013-04-30 17:50:00,60.4,42.2,29.70,WSW,237,19.6,19.6,51,0.00,OVC,SCT,0.01,0.0,WeatherDisplay:10.37,2013-04-30 22:50:00,
2013-04-30 17:55:00,59.9,41.2,29.72,WSW,244,19.6,19.6,50,0.00,OVC,SCT,0.01,0.0,WeatherDisplay:10.37,2013-04-30 22:55:00,
2013-04-30 18:00:00,59.2,40.6,29.72,WSW,256,16.0,16.0,50,0.00,OVC,SCT,0.01,0.0,WeatherDisplay:10.37,2013-04-30 23:00:00,
2013-04-30 18:05:00,58.4,40.8,29.73,WSW,248,18.4,18.4,52,0.00,OVC,SCT,0.01,0.0,WeatherDisplay:10.37,2013-04-30 23:05:00,
2013-04-30 18:10:00,58.0,41.4,29.73,WSW,237,19.6,19.6,54,0.00,OVC,SCT,0.01,0.0,WeatherDisplay:10.37,2013-04-30 23:10:00,
2013-04-30 18:15:00,58.4,41.3,29.74,WSW,237,17.0,17.0,53,0.00,OVC,SCT,0.01,0.0,WeatherDisplay:10.37,2013-04-30 23:15:00,
2013-04-30 18:21:00,58.4,41.8,29.74,SW,232,20.7,20.7,54,0.00,OVC,SCT,0.01,0.0,WeatherDisplay:10.37,2013-04-30 23:21:00,
2013-04-30 18:26:00,58.0,41.0,29.74,SW,221,17.3,17.3,53,0.00,OVC,SCT,0.01,0.0,WeatherDisplay:10.37,2013-04-30 23:26:00,
2013-04-30 18:31:00,59.5,42.3,29.74,SSW,208,19.6,19.6,53,0.00,OVC,SCT,0.01,0.0,WeatherDisplay:10.37,2013-04-30 23:31:00,
2013-04-30 18:36:00,59.2,41.1,29.74,SW,236,18.0,18.0,51,0.00,OVC,SCT,0.01,0.0,WeatherDisplay:10.37,2013-04-30 23:36:00,
2013-04-30 18:41:00,59.8,41.1,29.75,SW,225,13.8,13.8,50,0.00,OVC,SCT,0.01,0.0,WeatherDisplay:10.37,2013-04-30 23:41:00,
2013-04-30 18:46:00,60.2,41.5,29.75,WSW,244,20.7,20.7,50,0.00,OVC,SCT,0.01,0.0,WeatherDisplay:10.37,2013-04-30 23:46:00,
2013-04-30 18:51:00,60.1,41.4,29.75,WSW,242,18.4,18.4,50,0.00,OVC,SCT,0.01,0.0,WeatherDisplay:10.37,2013-04-30 23:51:00,
2013-04-30 18:56:00,59.8,41.1,29.75,SW,231,11.5,11.5,50,0.00,OVC,SCT,0.01,0.0,WeatherDisplay:10.37,2013-04-30 23:56:00,
2013-04-30 19:02:00,59.9,40.7,29.76,SW,229,16.1,16.1,49,0.00,,SCT,0.01,0.0,WeatherDisplay:10.37,2013-05-01 00:02:00,
2013-04-30 19:07:00,59.6,40.4,29.76,SW,235,11.5,11.5,49,0.00,,SCT,0.01,0.0,WeatherDisplay:10.37,2013-05-01 00:07:00,
2013-04-30 19:12:00,59.0,40.9,29.76,SW,227,16.1,16.1,51,0.00,,SCT,0.01,0.0,WeatherDisplay:10.37,2013-05-01 00:12:00,
2013-04-30 19:17:00,59.3,40.7,29.76,WSW,245,11.5,11.5,50,0.00,,SCT,0.01,0.0,WeatherDisplay:10.37,2013-05-01 00:17:00,
2013-04-30 19:22:00,59.0,40.9,29.76,SW,232,11.5,11.5,51,0.00,,SCT,0.01,0.0,WeatherDisplay:10.37,2013-05-01 00:22:00,
2013-04-30 19:27:00,59.0,40.4,29.76,SW,226,11.5,11.5,50,0.00,,SCT,0.01,0.0,WeatherDisplay:10.37,2013-05-01 00:27:00,
2013-04-30 19:32:00,58.4,39.8,29.77,SW,220,16.1,16.1,50,0.00,,SCT,0.01,0.0,WeatherDisplay:10.37,2013-05-01 00:32:00,
2013-04-30 19:38:00,58.1,40.6,29.77,SW,228,10.0,10.0,52,0.00,,SCT,0.01,0.0,WeatherDisplay:10.37,2013-05-01 00:38:00,
2013-04-30 19:43:00,57.8,40.8,29.77,West,261,12.7,12.7,53,0.00,,SCT,0.01,0.0,WeatherDisplay:10.37,2013-05-01 00:43:00,
2013-04-30 19:48:00,57.6,40.6,29.77,SW,227,11.5,11.5,53,0.00,,SCT,0.01,0.0,WeatherDisplay:10.37,2013-05-01 00:48:00,
2013-04-30 19:53:00,56.7,40.2,29.77,SW,228,11.5,11.5,54,0.00,,SCT,0.01,0.0,WeatherDisplay:10.37,2013-05-01 00:53:00,
2013-04-30 19:58:00,56.5,40.5,29.77,WSW,239,11.5,11.5,55,0.00,,SCT,0.01,0.0,WeatherDisplay:10.37,2013-05-01 00:58:00,
2013-04-30 20:03:00,56.0,40.1,29.77,SW,231,12.7,12.7,55,0.00,,SCT,0.01,0.0,WeatherDisplay:10.37,2013-05-01 01:03:00,
2013-04-30 20:08:00,55.7,40.2,29.77,SW,231,13.8,13.8,56,0.00,,SCT,0.01,0.0,WeatherDisplay:10.37,2013-05-01 01:08:00,
2013-04-30 20:13:00,55.3,39.9,29.77,WSW,237,13.8,13.8,56,0.00,,SCT,0.01,0.0,WeatherDisplay:10.37,2013-05-01 01:13:00,
2013-04-30 20:19:00,54.5,39.6,29.78,West,279,13.0,13.0,57,0.00,,SCT,0.01,0.0,WeatherDisplay:10.37,2013-05-01 01:19:00,
2013-04-30 20:24:00,54.1,38.7,29.77,West,275,13.8,13.8,56,0.00,,SCT,0.01,0.0,WeatherDisplay:10.37,2013-05-01 01:24:00,
2013-04-30 20:29:00,53.8,38.0,29.77,West,261,11.5,11.5,55,0.00,,SCT,0.01,0.0,WeatherDisplay:10.37,2013-05-01 01:29:00,
2013-04-30 20:34:00,53.2,37.9,29.78,WSW,255,12.0,12.0,56,0.00,,SCT,0.01,0.0,WeatherDisplay:10.37,2013-05-01 01:34:00,
2013-04-30 20:39:00,52.6,37.3,29.79,WSW,241,11.5,11.5,56,0.00,,SCT,0.01,0.0,WeatherDisplay:10.37,2013-05-01 01:39:00,
2013-04-30 20:44:00,52.6,36.9,29.80,WSW,244,11.5,11.5,55,0.00,,SCT,0.01,0.0,WeatherDisplay:10.37,2013-05-01 01:44:00,
2013-04-30 20:49:00,52.5,35.8,29.80,WSW,257,15.0,15.0,53,0.00,,SCT,0.01,0.0,WeatherDisplay:10.37,2013-05-01 01:49:00,
2013-04-30 20:54:00,52.0,35.4,29.80,West,261,8.0,12.0,53,0.00,,SCT,0.01,0.0,WeatherDisplay:10.37,2013-05-01 01:54:00,
2013-04-30 20:59:00,52.1,34.5,29.79,West,275,7.0,12.0,51,0.00,,SCT,0.01,0.0,WeatherDisplay:10.37,2013-05-01 01:59:00,
2013-04-30 21:04:00,53.2,34.0,29.78,WNW,286,6.0,14.0,48,0.00,,SCT,0.01,0.0,WeatherDisplay:10.37,2013-05-01 02:04:00,
2013-04-30 21:09:00,51.9,35.7,29.79,WNW,290,5.0,8.0,54,0.00,,SCT,0.01,0.0,WeatherDisplay:10.37,2013-05-01 02:09:00,
2013-04-30 21:14:00,51.0,34.9,29.80,WNW,289,4.0,4.2,54,0.00,,SCT,0.01,0.0,WeatherDisplay:10.37,2013-05-01 02:14:00,
2013-04-30 21:19:00,51.0,33.5,29.80,WNW,289,5.0,6.0,51,0.00,,SCT,0.01,0.0,WeatherDisplay:10.37,2013-05-01 02:19:00,
2013-04-30 21:24:00,51.3,33.2,29.80,West,281,3.0,7.0,50,0.00,,SCT,0.01,0.0,WeatherDisplay:10.37,2013-05-01 02:24:00,
2013-04-30 21:29:00,51.6,32.5,29.80,West,275,3.0,6.0,48,0.00,,SCT,0.01,0.0,WeatherDisplay:10.37,2013-05-01 02:29:00,
2013-04-30 21:34:00,52.3,31.6,29.79,West,266,6.9,6.9,45,0.00,,SCT,0.01,0.0,WeatherDisplay:10.37,2013-05-01 02:34:00,
2013-04-30 21:40:00,52.0,32.4,29.79,West,276,9.2,9.2,47,0.00,,SCT,0.01,0.0,WeatherDisplay:10.37,2013-05-01 02:40:00,
2013-04-30 21:45:00,51.4,31.8,29.80,West,281,8.1,8.1,47,0.00,,SCT,0.01,0.0,WeatherDisplay:10.37,2013-05-01 02:45:00,
2013-04-30 21:50:00,51.1,29.9,29.80,West,280,9.2,9.2,44,0.00,,SCT,0.01,0.0,WeatherDisplay:10.37,2013-05-01 02:50:00,
2013-04-30 21:55:00,51.9,28.9,29.80,WNW,291,9.2,9.2,41,0.00,,SCT,0.01,0.0,WeatherDisplay:10.37,2013-05-01 02:55:00,
2013-04-30 22:00:00,52.8,28.5,29.80,WNW,292,9.2,9.2,39,0.00,,SCT,0.01,0.0,WeatherDisplay:10.37,2013-05-01 03:00:00,
2013-04-30 22:05:00,51.9,30.1,29.80,WNW,289,7.0,7.0,43,0.00,,SCT,0.01,0.0,WeatherDisplay:10.37,2013-05-01 03:05:00,
2013-04-30 22:10:00,51.1,29.9,29.81,WNW,285,9.2,9.2,44,0.00,,SCT,0.01,0.0,WeatherDisplay:10.37,2013-05-01 03:10:00,
2013-04-30 22:16:00,49.9,32.5,29.81,WSW,257,8.1,8.1,51,0.00,,SCT,0.01,0.0,WeatherDisplay:10.37,2013-05-01 03:16:00,
2013-04-30 22:21:00,48.8,30.0,29.81,WSW,257,8.1,8.1,48,0.00,,SCT,0.01,0.0,WeatherDisplay:10.37,2013-05-01 03:21:00,
2013-04-30 22:26:00,48.8,27.8,29.82,West,261,4.6,4.8,44,0.00,,SCT,0.01,0.0,WeatherDisplay:10.37,2013-05-01 03:26:00,
2013-04-30 22:31:00,48.8,27.3,29.82,West,261,6.0,6.0,43,0.00,,SCT,0.01,0.0,WeatherDisplay:10.37,2013-05-01 03:31:00,
2013-04-30 22:36:00,48.6,27.1,29.83,West,261,6.0,6.0,43,0.00,,SCT,0.01,0.0,WeatherDisplay:10.37,2013-05-01 03:36:00,
2013-04-30 22:41:00,48.8,28.9,29.84,West,261,7.0,7.0,46,0.00,,SCT,0.01,0.0,WeatherDisplay:10.37,2013-05-01 03:41:00,
2013-04-30 22:46:00,48.3,29.0,29.84,West,271,9.2,9.2,47,0.00,,SCT,0.01,0.0,WeatherDisplay:10.37,2013-05-01 03:46:00,
2013-04-30 22:51:00,47.6,29.4,29.84,West,281,6.9,6.9,49,0.00,,SCT,0.01,0.0,WeatherDisplay:10.37,2013-05-01 03:51:00,
2013-04-30 22:57:00,47.4,29.2,29.84,West,271,7.0,7.0,49,0.00,,SCT,0.01,0.0,WeatherDisplay:10.37,2013-05-01 03:57:00,
2013-04-30 23:01:00,47.7,28.4,29.84,West,266,9.2,9.2,47,0.00,,SCT,0.01,0.0,WeatherDisplay:10.37,2013-05-01 04:01:00,
2013-04-30 23:02:00,47.7,27.9,29.84,West,266,6.9,6.9,46,0.00,,SCT,0.01,0.0,WeatherDisplay:10.37,2013-05-01 04:02:00,
2013-04-30 23:07:00,47.7,28.9,29.84,West,266,5.0,5.0,48,0.00,,SCT,0.01,0.0,WeatherDisplay:10.37,2013-05-01 04:07:00,
2013-04-30 23:12:00,47.6,29.4,29.84,West,277,8.1,8.1,49,0.00,,SCT,0.01,0.0,WeatherDisplay:10.37,2013-05-01 04:12:00,
2013-04-30 23:18:00,47.3,28.6,29.85,West,266,7.0,7.0,48,0.00,,SCT,0.01,0.0,WeatherDisplay:10.37,2013-05-01 04:18:00,
2013-04-30 23:23:00,47.3,28.6,29.85,West,261,8.1,8.1,48,0.00,,SCT,0.01,0.0,WeatherDisplay:10.37,2013-05-01 04:23:00,
2013-04-30 23:28:00,47.0,29.8,29.85,WSW,254,6.9,6.9,51,0.00,,SCT,0.01,0.0,WeatherDisplay:10.37,2013-05-01 04:28:00,
2013-04-30 23:33:00,46.8,29.6,29.86,WSW,256,6.9,6.9,51,0.00,,SCT,0.01,0.0,WeatherDisplay:10.37,2013-05-01 04:33:00,
2013-04-30 23:38:00,47.4,29.7,29.86,WSW,256,6.0,6.0,50,0.00,,SCT,0.01,0.0,WeatherDisplay:10.37,2013-05-01 04:38:00,
2013-04-30 23:43:00,47.3,30.1,29.87,WSW,254,7.0,7.0,51,0.00,,SCT,0.01,0.0,WeatherDisplay:10.37,2013-05-01 04:43:00,
2013-04-30 23:48:00,47.6,30.3,29.87,WSW,254,7.0,7.0,51,0.00,,SCT,0.01,0.0,WeatherDisplay:10.37,2013-05-01 04:48:00,
2013-04-30 23:53:00,47.1,31.7,29.86,WSW,254,6.0,6.0,55,0.00,,SCT,0.01,0.0,WeatherDisplay:10.37,2013-05-01 04:53:00,
2013-04-30 23:59:00,47.6,30.3,29.87,WSW,253,5.8,5.8,51,0.00,,SCT,0.01,0.0,WeatherDisplay:10.37,2013-05-01 04:59:00,